Time;durP1;ratioP1;P1;durP2;ratioP2;P2;SDS_P1;SDS_P2;PMS_P1;PMS_P2;Temp;Humidity;BMP_temperature;BMP_pressure;BME280_temperature;BME280_humidity;BME280_pressure;Samples;Min_cycle;Max_cycle;Signal;HPM_P1;HPM_P2
2023/03/28 00:00:34;;;;;;;1.37;0.53;;;14.80;60.40;;;;;;5052443;28;20322;-63
2023/03/28 00:03:26;;;;;;;0.70;0.70;;;15.10;60.50;;;;;;5050856;28;20221;-62
2023/03/28 00:06:17;;;;;;;2.58;0.70;;;15.20;60.40;;;;;;5053359;28;20221;-62
2023/03/28 00:09:06;;;;;;;1.00;0.70;;;15.10;60.40;;;;;;5051387;28;20688;-63
2023/03/28 00:11:54;;;;;;;2.40;0.93;;;15.10;60.40;;;;;;5050860;28;20223;-62
2023/03/28 00:14:42;;;;;;;0.93;0.60;;;15.10;60.50;;;;;;5052416;28;20197;-62
2023/03/28 00:17:30;;;;;;;1.50;0.67;;;15.10;60.70;;;;;;5052252;28;20215;-63
2023/03/28 00:20:20;;;;;;;1.33;0.60;;;15.10;60.80;;;;;;5051063;28;20229;-62
2023/03/28 00:23:08;;;;;;;2.53;0.70;;;15.20;60.90;;;;;;5051029;28;20217;-62
2023/03/28 00:25:56;;;;;;;0.73;0.60;;;15.20;60.40;;;;;;5031313;28;20329;-62
2023/03/28 00:28:46;;;;;;;1.53;0.70;;;15.20;61.00;;;;;;5031685;28;20280;-62
2023/03/28 00:31:37;;;;;;;1.10;0.70;;;15.20;60.60;;;;;;5032427;28;20232;-62
2023/03/28 00:34:25;;;;;;;2.10;0.80;;;15.10;60.60;;;;;;5033421;28;20194;-63
2023/03/28 00:37:16;;;;;;;0.83;0.60;;;15.10;60.90;;;;;;5032083;28;20508;-63
2023/03/28 00:40:06;;;;;;;0.90;0.60;;;15.10;60.80;;;;;;5031931;28;20218;-63
2023/03/28 00:42:54;;;;;;;1.23;0.80;;;15.00;61.00;;;;;;5031889;28;20480;-63
2023/03/28 00:45:42;;;;;;;1.07;0.70;;;14.90;61.20;;;;;;5032571;28;20194;-62
2023/03/28 00:48:30;;;;;;;1.00;0.60;;;15.00;61.50;;;;;;5032719;28;20678;-62
2023/03/28 00:51:23;;;;;;;1.33;0.90;;;14.90;61.50;;;;;;5030239;28;20441;-63
2023/03/28 00:54:18;;;;;;;1.20;0.70;;;14.90;62.30;;;;;;5032248;28;20202;-62
2023/03/28 00:57:07;;;;;;;0.90;0.73;;;14.60;61.20;;;;;;5038526;28;20201;-62
2023/03/28 00:59:56;;;;;;;0.57;0.57;;;15.00;80.70;;;;;;5042144;28;20434;-63
2023/03/28 01:02:49;;;;;;;0.60;0.60;;;15.00;61.50;;;;;;5030787;28;20281;-63
2023/03/28 01:05:38;;;;;;;2.40;0.80;;;14.90;61.30;;;;;;5031998;28;20933;-62
2023/03/28 01:08:29;;;;;;;0.70;0.60;;;15.00;61.50;;;;;;5028263;28;20439;-62
2023/03/28 01:11:20;;;;;;;0.60;0.60;;;15.00;61.50;;;;;;5030097;28;20218;-62
2023/03/28 01:14:12;;;;;;;0.50;0.50;;;15.00;61.60;;;;;;5032377;28;20229;-62
2023/03/28 01:17:00;;;;;;;0.60;0.60;;;15.10;61.90;;;;;;5032230;28;20224;-63
2023/03/28 01:20:00;;;;;;;0.80;0.70;;;15.00;75.30;;;;;;5031413;28;20213;-62
2023/03/28 01:23:21;;;;;;;1.73;0.60;;;15.00;61.70;;;;;;5031790;28;20569;-63
2023/03/28 01:26:38;;;;;;;0.73;0.73;;;15.10;61.60;;;;;;4999004;28;20220;-62
2023/03/28 01:29:53;;;;;;;0.60;0.60;;;15.10;61.60;;;;;;5031310;28;20332;-62
2023/03/28 01:33:08;;;;;;;1.67;0.80;;;15.20;61.00;;;;;;5030704;28;20423;-62
2023/03/28 01:36:36;;;;;;;1.13;0.60;;;15.20;61.30;;;;;;5030606;28;20432;-63
2023/03/28 01:39:43;;;;;;;0.80;0.70;;;15.20;61.40;;;;;;5031491;28;20205;-63
2023/03/28 01:42:37;;;;;;;0.55;0.55;;;15.10;61.50;;;;;;5031017;28;20348;-62
2023/03/28 01:45:35;;;;;;;0.80;0.73;;;15.10;61.50;;;;;;5031883;28;20230;-62
2023/03/28 01:48:33;;;;;;;1.77;0.73;;;15.10;61.70;;;;;;5030805;28;20209;-62
2023/03/28 01:51:29;;;;;;;1.23;0.63;;;15.00;61.60;;;;;;5040501;28;20218;-63
2023/03/28 01:54:28;;;;;;;1.23;0.60;;;15.00;61.70;;;;;;5053038;28;20198;-63
2023/03/28 01:57:22;;;;;;;3.27;0.70;;;15.00;61.80;;;;;;5061678;28;20221;-63
2023/03/28 02:00:20;;;;;;;0.97;0.70;;;14.90;61.80;;;;;;5062836;28;20233;-62
2023/03/28 02:03:13;;;;;;;0.80;0.80;;;15.00;61.60;;;;;;5053953;28;20227;-62
2023/03/28 02:06:07;;;;;;;1.63;0.70;;;15.00;62.40;;;;;;5053600;28;20558;-62
2023/03/28 02:08:56;;;;;;;1.53;0.70;;;15.00;61.90;;;;;;5053256;28;20670;-62
2023/03/28 02:11:49;;;;;;;0.70;0.70;;;14.90;61.90;;;;;;5052685;28;20717;-62
2023/03/28 02:14:41;;;;;;;1.40;0.70;;;15.00;62.00;;;;;;5053557;28;20507;-62
2023/03/28 02:17:31;;;;;;;0.90;0.70;;;15.00;61.80;;;;;;5054736;28;20227;-62
2023/03/28 02:20:23;;;;;;;0.87;0.70;;;14.80;80.00;;;;;;5053839;28;20236;-62
2023/03/28 02:23:16;;;;;;;1.27;0.80;;;15.00;61.50;;;;;;5055166;28;20228;-62
2023/03/28 02:26:05;;;;;;;0.70;0.70;;;15.00;61.60;;;;;;5053909;28;20202;-62
2023/03/28 02:28:57;;;;;;;1.50;0.90;;;15.00;61.70;;;;;;5053536;28;20247;-62
2023/03/28 02:31:46;;;;;;;2.33;1.53;;;15.00;61.50;;;;;;5054550;28;20221;-62
2023/03/28 02:34:34;;;;;;;2.60;1.00;;;15.10;61.70;;;;;;5053593;28;20200;-63
2023/03/28 02:37:32;;;;;;;1.63;0.80;;;15.10;62.10;;;;;;5054608;28;20452;-62
2023/03/28 02:40:39;;;;;;;2.07;0.80;;;15.10;61.40;;;;;;5053150;28;20257;-62
2023/03/28 02:43:47;;;;;;;2.20;0.70;;;15.10;61.20;;;;;;5053024;28;20526;-62
2023/03/28 02:46:45;;;;;;;1.20;0.67;;;15.00;61.20;;;;;;5053685;28;20204;-62
2023/03/28 02:49:46;;;;;;;2.40;0.70;;;15.00;61.30;;;;;;5053963;28;20335;-62
2023/03/28 02:52:49;;;;;;;1.43;0.80;;;15.00;61.10;;;;;;5052327;28;20208;-62
2023/03/28 02:55:45;;;;;;;1.83;0.70;;;14.90;61.20;;;;;;5052755;28;20213;-62
2023/03/28 02:58:38;;;;;;;2.10;0.77;;;14.90;61.10;;;;;;5034208;28;20332;-62
2023/03/28 03:01:28;;;;;;;1.37;0.70;;;14.90;61.20;;;;;;5033741;28;20602;-63
2023/03/28 03:04:17;;;;;;;1.60;0.70;;;14.90;61.10;;;;;;5033616;28;20706;-62
2023/03/28 03:07:08;;;;;;;4.10;0.80;;;14.90;61.20;;;;;;5033115;28;20906;-62
2023/03/28 03:09:56;;;;;;;0.90;0.70;;;14.80;80.40;;;;;;5033652;28;20202;-62
2023/03/28 03:12:45;;;;;;;1.10;0.73;;;14.90;61.10;;;;;;5033208;28;20210;-63
2023/03/28 03:15:34;;;;;;;2.30;0.83;;;14.90;61.40;;;;;;5033181;28;20214;-62
2023/03/28 03:18:22;;;;;;;0.70;0.70;;;14.90;60.80;;;;;;5043160;28;20428;-62
2023/03/28 03:21:12;;;;;;;0.63;0.60;;;14.90;60.90;;;;;;5052605;28;20702;-62
2023/03/28 03:24:00;;;;;;;1.00;0.70;;;15.50;61.60;;;;;;5052163;28;20328;-62
2023/03/28 03:26:48;;;;;;;2.60;1.00;;;14.90;61.10;;;;;;5052450;28;20338;-62
2023/03/28 03:29:36;;;;;;;0.60;0.60;;;15.00;61.10;;;;;;5053035;28;20211;-62
2023/03/28 03:32:26;;;;;;;1.05;0.80;;;14.90;61.20;;;;;;5051933;28;20213;-62
2023/03/28 03:35:15;;;;;;;2.00;0.70;;;14.90;60.90;;;;;;5053085;28;20308;-62
2023/03/28 03:38:04;;;;;;;0.80;0.80;;;15.00;61.20;;;;;;5051706;28;20515;-62
2023/03/28 03:40:52;;;;;;;2.27;0.97;;;15.00;61.00;;;;;;5054913;28;20229;-62
2023/03/28 03:43:41;;;;;;;0.80;0.80;;;14.90;60.80;;;;;;5052710;28;20217;-62
2023/03/28 03:46:29;;;;;;;0.97;0.80;;;14.90;61.00;;;;;;5053712;28;20241;-62
2023/03/28 03:49:17;;;;;;;1.30;0.80;;;14.80;61.00;;;;;;5054271;28;20523;-63
2023/03/28 03:52:05;;;;;;;2.40;0.77;;;14.80;61.30;;;;;;5051560;28;20198;-62
2023/03/28 03:54:55;;;;;;;0.90;0.60;;;14.80;61.00;;;;;;5052093;28;20426;-62
2023/03/28 03:57:43;;;;;;;2.77;0.80;;;14.90;61.90;;;;;;5041234;28;20274;-63
2023/03/28 04:00:31;;;;;;;2.53;0.60;;;14.90;60.90;;;;;;5032600;28;20222;-62
2023/03/28 04:03:19;;;;;;;2.37;1.00;;;14.90;61.10;;;;;;5032442;28;20202;-62
2023/03/28 04:06:12;;;;;;;1.20;0.57;;;14.90;61.00;;;;;;5033087;28;20964;-62
2023/03/28 04:09:00;;;;;;;1.90;0.70;;;14.90;60.60;;;;;;5032681;28;20512;-63
2023/03/28 04:11:49;;;;;;;0.93;0.80;;;14.90;61.00;;;;;;5033006;28;20234;-63
2023/03/28 04:14:37;;;;;;;2.15;0.80;;;14.90;60.70;;;;;;5032376;28;20213;-62
2023/03/28 04:17:28;;;;;;;0.93;0.60;;;14.90;60.40;;;;;;5033108;28;20229;-62
2023/03/28 04:20:17;;;;;;;2.03;0.90;;;15.00;60.60;;;;;;5032327;28;20222;-62
2023/03/28 04:23:07;;;;;;;1.73;0.87;;;14.90;60.50;;;;;;5032411;28;20425;-63
2023/03/28 04:25:56;;;;;;;1.40;0.70;;;15.00;60.80;;;;;;5032028;28;20202;-62
2023/03/28 04:28:47;;;;;;;1.92;0.80;;;15.00;60.60;;;;;;5032261;28;20202;-63
2023/03/28 04:31:38;;;;;;;0.95;0.63;;;15.00;60.60;;;;;;5031891;28;20229;-62
2023/03/28 04:34:29;;;;;;;2.13;0.70;;;15.00;60.50;;;;;;5032481;28;20194;-62
2023/03/28 04:37:17;;;;;;;3.10;0.80;;;15.00;60.50;;;;;;5032994;28;20220;-63
2023/03/28 04:40:09;;;;;;;0.68;0.60;;;14.80;59.80;;;;;;5032249;28;20378;-62
2023/03/28 04:42:57;;;;;;;1.30;0.73;;;14.80;60.50;;;;;;5032084;28;20205;-62
2023/03/28 04:45:46;;;;;;;1.30;0.83;;;14.70;60.80;;;;;;5031836;28;20356;-62
2023/03/28 04:48:34;;;;;;;1.23;0.70;;;14.70;60.70;;;;;;5032895;28;20217;-62
2023/03/28 04:51:23;;;;;;;1.60;0.73;;;14.70;61.10;;;;;;5031284;28;20253;-63
2023/03/28 04:54:12;;;;;;;0.70;0.70;;;14.70;60.80;;;;;;5031795;28;20194;-62
2023/03/28 04:57:01;;;;;;;1.50;0.70;;;14.70;60.80;;;;;;5038213;28;20243;-62
2023/03/28 04:59:49;;;;;;;1.90;0.60;;;14.90;76.90;;;;;;5051987;28;20201;-62
2023/03/28 05:02:38;;;;;;;1.60;0.70;;;14.70;61.00;;;;;;5050793;28;20864;-62
2023/03/28 05:05:27;;;;;;;1.17;0.80;;;14.70;60.60;;;;;;5051549;28;20218;-62
2023/03/28 05:08:16;;;;;;;1.57;0.70;;;14.80;60.70;;;;;;5051052;28;20751;-62
2023/03/28 05:11:05;;;;;;;0.97;0.60;;;14.80;60.50;;;;;;5050474;28;20302;-62
2023/03/28 05:13:53;;;;;;;1.05;0.95;;;14.80;60.60;;;;;;5050678;28;20275;-62
2023/03/28 05:16:41;;;;;;;0.80;0.60;;;14.80;60.50;;;;;;5051284;28;20193;-62
2023/03/28 05:19:31;;;;;;;1.17;0.60;;;14.90;60.20;;;;;;5051610;28;20197;-63
2023/03/28 05:22:19;;;;;;;2.30;1.00;;;14.90;60.20;;;;;;5050522;28;20267;-62
2023/03/28 05:25:08;;;;;;;1.13;0.70;;;15.00;60.00;;;;;;5052485;28;20298;-62
2023/03/28 05:27:56;;;;;;;2.88;0.63;;;15.00;60.00;;;;;;5051687;28;20197;-63
2023/03/28 05:30:44;;;;;;;2.47;0.90;;;15.00;60.60;;;;;;5051258;28;20270;-62
2023/03/28 05:33:33;;;;;;;1.92;0.85;;;15.00;59.80;;;;;;5050010;28;20335;-62
2023/03/28 05:36:23;;;;;;;0.83;0.80;;;15.00;59.70;;;;;;5050690;28;20236;-62
2023/03/28 05:39:11;;;;;;;3.70;0.70;;;15.00;59.80;;;;;;5054915;28;20251;-63
2023/03/28 05:41:59;;;;;;;0.95;0.60;;;14.90;59.80;;;;;;5055389;28;20245;-63
2023/03/28 05:44:47;;;;;;;1.83;0.70;;;14.90;59.90;;;;;;5055865;28;20709;-62
2023/03/28 05:47:36;;;;;;;2.63;0.73;;;14.90;59.90;;;;;;5055248;28;20205;-62
2023/03/28 05:50:25;;;;;;;0.80;0.80;;;14.10;59.60;;;;;;5053568;28;20216;-62
2023/03/28 05:53:14;;;;;;;2.15;0.80;;;14.80;59.90;;;;;;5055022;28;20201;-62
2023/03/28 05:56:03;;;;;;;2.85;0.90;;;14.80;59.90;;;;;;5055159;28;20248;-62
2023/03/28 05:58:51;;;;;;;1.58;0.70;;;14.70;60.20;;;;;;5015378;28;20199;-62
2023/03/28 06:01:39;;;;;;;1.05;0.70;;;14.70;60.70;;;;;;5016472;28;20219;-62
2023/03/28 06:04:30;;;;;;;1.27;0.60;;;14.70;60.40;;;;;;5015861;28;20199;-62
2023/03/28 06:07:18;;;;;;;1.53;0.90;;;14.70;60.30;;;;;;5015945;28;20210;-62
2023/03/28 06:10:20;;;;;;;0.70;0.60;;;14.70;59.70;;;;;;5016751;28;20297;-62
2023/03/28 06:13:08;;;;;;;2.27;1.10;;;14.70;60.10;;;;;;5025304;28;20467;-62
2023/03/28 06:15:56;;;;;;;3.03;2.33;;;14.80;62.70;;;;;;5025797;28;20565;-62
2023/03/28 06:18:44;;;;;;;2.40;1.20;;;15.10;62.20;;;;;;5014180;28;20515;-62
2023/03/28 06:21:32;;;;;;;1.10;1.00;;;15.40;62.00;;;;;;5016615;28;20289;-62
2023/03/28 06:24:21;;;;;;;1.17;1.07;;;15.80;61.60;;;;;;5034366;28;20279;-62
2023/03/28 06:27:10;;;;;;;1.08;0.98;;;16.20;61.70;;;;;;5033501;28;20206;-62
2023/03/28 06:29:58;;;;;;;2.58;0.90;;;16.60;79.20;;;;;;5033056;28;20293;-62
2023/03/28 06:32:46;;;;;;;2.35;0.80;;;16.70;60.50;;;;;;5013959;28;20208;-62
2023/03/28 06:35:35;;;;;;;0.70;0.70;;;16.90;59.60;;;;;;5014294;28;20260;-62
2023/03/28 06:38:23;;;;;;;1.85;0.75;;;17.10;59.80;;;;;;5013582;28;20210;-62
2023/03/28 06:41:11;;;;;;;1.45;0.80;;;17.30;59.50;;;;;;5013754;28;20222;-63
2023/03/28 06:44:01;;;;;;;3.88;0.93;;;17.50;59.00;;;;;;5014294;28;20235;-62
2023/03/28 06:46:49;;;;;;;4.38;0.85;;;17.70;58.90;;;;;;5013655;28;20702;-63
2023/03/28 06:49:37;;;;;;;2.25;0.90;;;17.90;58.60;;;;;;5013201;28;20210;-62
2023/03/28 06:52:25;;;;;;;0.80;0.77;;;18.10;58.30;;;;;;5013595;28;20202;-62
2023/03/28 06:55:13;;;;;;;1.48;1.20;;;18.20;58.30;;;;;;5013910;28;20337;-62
2023/03/28 06:58:01;;;;;;;0.90;0.80;;;18.30;57.70;;;;;;5043236;28;20619;-62
2023/03/28 07:00:53;;;;;;;1.83;0.77;;;18.40;57.90;;;;;;5043849;28;20256;-62
2023/03/28 07:03:41;;;;;;;1.73;1.00;;;18.50;57.30;;;;;;5034545;28;20213;-62
2023/03/28 07:06:29;;;;;;;1.08;0.70;;;18.60;57.80;;;;;;5031716;28;20757;-63
2023/03/28 07:09:17;;;;;;;2.35;0.95;;;18.70;57.10;;;;;;5026760;28;20260;-65
2023/03/28 07:12:06;;;;;;;3.38;0.70;;;18.80;57.30;;;;;;5024083;28;20206;-65
2023/03/28 07:14:54;;;;;;;1.73;0.73;;;18.90;56.90;;;;;;5026885;28;20277;-65
2023/03/28 07:17:44;;;;;;;1.42;0.90;;;19.00;57.00;;;;;;5030031;28;20289;-65
2023/03/28 07:20:32;;;;;;;1.10;0.80;;;19.10;57.20;;;;;;5029876;28;20236;-65
2023/03/28 07:23:21;;;;;;;5.15;0.75;;;18.80;56.50;;;;;;5031842;28;20260;-65
2023/03/28 07:26:10;;;;;;;3.20;0.80;;;19.20;56.60;;;;;;5024717;28;20259;-65
2023/03/28 07:28:58;;;;;;;5.18;1.20;;;19.30;56.90;;;;;;5035147;28;20229;-65
2023/03/28 07:31:47;;;;;;;7.90;1.25;;;19.40;56.90;;;;;;5034502;28;20718;-66
2023/03/28 07:34:36;;;;;;;2.13;0.80;;;19.40;56.60;;;;;;5047023;28;20276;-66
2023/03/28 07:37:26;;;;;;;2.55;1.08;;;19.50;56.80;;;;;;5023118;28;20230;-65
2023/03/28 07:40:15;;;;;;;1.13;0.80;;;19.50;56.30;;;;;;5030930;28;20300;-66
2023/03/28 07:43:05;;;;;;;1.52;0.90;;;19.60;56.80;;;;;;5023264;28;20205;-64
2023/03/28 07:45:38;;;;;;;2.65;1.08;;;19.70;56.90;;;;;;5027003;28;20222;-67
2023/03/28 07:48:07;;;;;;;4.20;1.10;;;19.80;58.10;;;;;;5037443;28;20202;-67
2023/03/28 07:50:37;;;;;;;3.28;0.90;;;19.90;58.60;;;;;;5029544;28;20249;-69
2023/03/28 07:53:05;;;;;;;4.95;1.08;;;19.90;57.80;;;;;;5028249;28;20206;-67
2023/03/28 07:55:35;;;;;;;1.30;0.90;;;19.90;57.10;;;;;;5027085;28;20203;-66
2023/03/28 07:58:21;;;;;;;1.80;1.00;;;19.90;57.10;;;;;;5020386;28;20195;-66
2023/03/28 08:00:50;;;;;;;3.30;1.30;;;19.90;56.80;;;;;;5030741;28;20230;-64
2023/03/28 08:03:21;;;;;;;3.03;0.90;;;19.90;57.00;;;;;;5033211;28;20248;-65
2023/03/28 08:05:51;;;;;;;1.90;1.00;;;20.00;57.40;;;;;;5027391;28;20202;-67
2023/03/28 08:08:20;;;;;;;2.70;0.70;;;20.00;56.70;;;;;;5032296;28;20206;-66
2023/03/28 08:10:49;;;;;;;4.22;1.20;;;20.00;57.00;;;;;;5039617;28;20226;-65
2023/03/28 08:13:19;;;;;;;4.38;0.90;;;20.00;57.60;;;;;;5036459;28;20208;-66
2023/03/28 08:15:49;;;;;;;2.28;0.70;;;20.00;57.80;;;;;;5028067;28;20244;-65
2023/03/28 08:18:23;;;;;;;2.05;0.88;;;20.10;57.70;;;;;;5027242;28;20224;-65
2023/03/28 08:20:59;;;;;;;0.80;0.80;;;20.10;57.00;;;;;;5022659;28;20312;-67
2023/03/28 08:23:28;;;;;;;0.88;0.70;;;20.20;57.30;;;;;;5019556;28;20216;-66
2023/03/28 08:26:03;;;;;;;2.83;0.70;;;20.20;57.00;;;;;;5023176;28;20220;-66
2023/03/28 08:28:35;;;;;;;3.13;0.98;;;20.30;56.90;;;;;;5030756;28;20214;-66
2023/03/28 08:31:12;;;;;;;2.78;0.95;;;20.30;56.60;;;;;;5029125;28;20226;-66
2023/03/28 08:33:41;;;;;;;3.72;1.02;;;20.30;56.50;;;;;;5030759;28;20292;-66
2023/03/28 08:36:13;;;;;;;2.90;0.85;;;20.30;57.00;;;;;;5031516;28;20206;-68
2023/03/28 08:38:42;;;;;;;2.20;0.80;;;20.30;56.80;;;;;;5030095;28;20213;-66
2023/03/28 08:41:28;;;;;;;3.15;1.02;;;20.40;56.20;;;;;;5030054;28;20221;-68
2023/03/28 08:44:12;;;;;;;1.55;0.82;;;20.40;56.90;;;;;;5029641;28;20198;-67
2023/03/28 08:46:44;;;;;;;4.10;0.80;;;20.40;56.40;;;;;;5030563;28;20214;-66
2023/03/28 08:49:16;;;;;;;2.15;0.70;;;20.50;56.40;;;;;;5028813;28;20212;-68
2023/03/28 08:51:50;;;;;;;1.60;0.95;;;20.50;56.50;;;;;;5025435;28;20221;-68
2023/03/28 08:54:22;;;;;;;1.70;0.90;;;20.60;57.00;;;;;;5030720;28;20272;-67
2023/03/28 08:56:54;;;;;;;2.58;0.80;;;20.60;57.00;;;;;;5033855;28;20277;-68
2023/03/28 08:59:28;;;;;;;1.05;0.90;;;20.60;56.60;;;;;;5022834;28;20358;-69
2023/03/28 09:01:56;;;;;;;2.65;1.45;;;20.60;55.00;;;;;;5012482;28;20222;-68
2023/03/28 09:04:28;;;;;;;2.17;1.00;;;20.60;55.50;;;;;;5023876;28;20214;-70
2023/03/28 09:07:04;;;;;;;2.25;0.82;;;20.50;55.20;;;;;;5029399;28;20313;-66
2023/03/28 09:09:44;;;;;;;7.35;1.10;;;20.60;55.80;;;;;;5030230;28;20208;-68
2023/03/28 09:12:26;;;;;;;3.08;0.98;;;20.60;56.50;;;;;;5027895;28;20204;-68
2023/03/28 09:15:15;;;;;;;1.42;0.90;;;20.60;54.70;;;;;;5033915;28;20197;-67
2023/03/28 09:17:58;;;;;;;5.70;1.38;;;20.60;54.80;;;;;;5011630;28;20195;-67
2023/03/28 09:20:33;;;;;;;5.20;0.90;;;20.70;54.80;;;;;;5011447;28;20282;-66
2023/03/28 09:23:15;;;;;;;1.00;0.80;;;20.70;55.20;;;;;;5022469;28;20198;-66
2023/03/28 09:25:48;;;;;;;5.60;1.15;;;20.70;54.90;;;;;;5018700;28;20247;-66
2023/03/28 09:28:29;;;;;;;1.92;0.77;;;20.80;54.50;;;;;;5022400;28;20232;-64
2023/03/28 09:30:59;;;;;;;3.28;0.85;;;20.70;55.10;;;;;;5021459;28;20218;-68
2023/03/28 09:33:30;;;;;;;5.03;1.17;;;20.70;54.30;;;;;;5026630;28;20252;-68
2023/03/28 09:35:58;;;;;;;1.55;0.73;;;20.70;54.40;;;;;;5027346;28;20198;-66
2023/03/28 09:38:33;;;;;;;2.28;1.00;;;20.70;55.50;;;;;;5029528;28;20193;-68
2023/03/28 09:41:07;;;;;;;3.97;1.05;;;20.70;55.30;;;;;;5029744;28;20267;-68
2023/03/28 09:43:41;;;;;;;5.68;1.23;;;20.80;54.10;;;;;;5029860;28;20240;-67
2023/03/28 09:46:14;;;;;;;2.70;0.95;;;20.70;53.10;;;;;;5023114;28;20285;-68
2023/03/28 09:48:42;;;;;;;5.97;0.88;;;20.80;54.00;;;;;;5026268;28;20209;-68
2023/03/28 09:51:17;;;;;;;11.60;1.80;;;20.70;54.80;;;;;;5029186;28;20225;-68
2023/03/28 09:53:47;;;;;;;5.75;0.95;;;20.60;53.90;;;;;;5029017;28;20210;-68
2023/03/28 09:56:24;;;;;;;6.00;1.30;;;20.80;54.80;;;;;;5026329;28;20194;-68
2023/03/28 09:58:54;;;;;;;3.88;1.10;;;20.70;54.00;;;;;;5023971;28;20209;-68
2023/03/28 10:01:33;;;;;;;3.83;1.10;;;20.70;53.60;;;;;;5023258;28;20231;-68
2023/03/28 10:04:10;;;;;;;0.80;0.80;;;20.70;53.50;;;;;;5028783;28;20206;-68
2023/03/28 10:06:40;;;;;;;3.47;1.23;;;20.70;53.70;;;;;;5029381;28;20289;-67
2023/03/28 10:09:17;;;;;;;1.95;0.60;;;20.70;53.00;;;;;;5025737;28;20206;-68
2023/03/28 10:11:53;;;;;;;1.50;0.80;;;20.70;54.20;;;;;;5022549;28;20297;-71
2023/03/28 10:14:32;;;;;;;3.90;0.90;;;20.70;51.50;;;;;;5030601;28;20197;-67
2023/03/28 10:17:03;;;;;;;9.30;1.63;;;20.70;53.90;;;;;;5017807;28;20277;-70
2023/03/28 10:19:33;;;;;;;3.00;0.90;;;20.70;51.70;;;;;;5020880;28;20198;-70
2023/03/28 10:22:06;;;;;;;40.58;3.83;;;20.70;52.30;;;;;;5025199;28;20312;-70
2023/03/28 10:24:36;;;;;;;2.60;1.00;;;20.80;52.50;;;;;;5027790;28;20229;-69
2023/03/28 10:27:15;;;;;;;2.55;0.80;;;20.70;52.80;;;;;;5032396;28;20235;-66
2023/03/28 10:29:44;;;;;;;1.30;0.80;;;20.70;53.20;;;;;;5030712;28;20324;-67
2023/03/28 10:32:13;;;;;;;3.03;0.90;;;20.60;53.30;;;;;;5023477;28;20194;-67
2023/03/28 10:34:41;;;;;;;6.10;0.90;;;20.70;53.30;;;;;;5029536;28;20198;-67
2023/03/28 10:37:24;;;;;;;0.80;0.70;;;20.60;53.10;;;;;;5028900;28;20199;-67
2023/03/28 10:40:05;;;;;;;5.40;0.80;;;20.80;67.90;;;;;;5028174;28;20194;-68
2023/03/28 10:42:44;;;;;;;2.05;0.80;;;20.60;51.90;;;;;;5031585;28;20206;-67
2023/03/28 10:45:22;;;;;;;0.93;0.70;;;20.70;53.40;;;;;;5030107;28;20199;-68
2023/03/28 10:47:52;;;;;;;2.50;0.90;;;20.60;53.30;;;;;;5031549;28;20222;-67
2023/03/28 10:50:26;;;;;;;1.67;0.90;;;20.80;53.90;;;;;;5028884;28;20249;-68
2023/03/28 10:53:12;;;;;;;2.53;0.95;;;20.70;52.70;;;;;;5029438;28;20265;-66
2023/03/28 10:55:51;;;;;;;0.75;0.60;;;20.70;53.70;;;;;;5030207;28;20202;-67
2023/03/28 10:58:30;;;;;;;1.90;0.98;;;20.80;53.20;;;;;;5030955;28;20205;-68
2023/03/28 11:01:05;;;;;;;2.85;0.82;;;20.80;52.50;;;;;;5028353;28;20222;-67
2023/03/28 11:03:42;;;;;;;4.63;0.70;;;20.80;53.00;;;;;;5030526;28;20280;-68
2023/03/28 11:06:16;;;;;;;1.50;0.95;;;20.80;52.20;;;;;;5029539;28;20251;-67
2023/03/28 11:09:01;;;;;;;3.70;0.88;;;20.70;52.10;;;;;;5027714;28;20222;-68
2023/03/28 11:11:43;;;;;;;1.08;0.70;;;20.70;51.80;;;;;;5031718;28;20226;-66
2023/03/28 11:14:23;;;;;;;2.13;0.80;;;20.70;51.70;;;;;;5027253;28;20214;-67
2023/03/28 11:17:01;;;;;;;4.55;0.82;;;20.80;52.20;;;;;;5032191;28;20244;-67
2023/03/28 11:19:45;;;;;;;1.48;0.80;;;20.80;51.90;;;;;;5026066;28;20340;-68
2023/03/28 11:22:24;;;;;;;2.03;0.90;;;20.70;51.60;;;;;;5027677;28;20297;-68
2023/03/28 11:24:59;;;;;;;1.27;0.80;;;20.70;51.90;;;;;;5029781;28;20202;-69
2023/03/28 11:27:36;;;;;;;1.58;0.70;;;20.70;52.40;;;;;;5026501;28;20222;-68
2023/03/28 11:30:11;;;;;;;0.95;0.63;;;20.70;53.00;;;;;;5030392;28;20225;-66
2023/03/28 11:32:46;;;;;;;2.80;0.90;;;20.70;52.80;;;;;;5026783;28;20202;-66
2023/03/28 11:35:20;;;;;;;3.17;0.85;;;20.80;52.70;;;;;;5024586;28;20201;-66
2023/03/28 11:38:01;;;;;;;4.82;0.70;;;20.80;53.90;;;;;;5031488;28;20206;-65
2023/03/28 11:40:34;;;;;;;4.47;0.80;;;20.90;53.40;;;;;;5028264;28;20232;-65
2023/03/28 11:43:06;;;;;;;0.82;0.82;;;20.80;53.40;;;;;;5029477;28;20256;-66
2023/03/28 11:45:37;;;;;;;3.80;0.80;;;20.80;53.70;;;;;;5028758;28;20194;-69
2023/03/28 11:48:21;;;;;;;1.13;0.60;;;20.70;52.50;;;;;;5030444;28;20218;-70
2023/03/28 11:50:58;;;;;;;2.15;0.80;;;20.70;53.10;;;;;;5029018;28;20220;-70
2023/03/28 11:53:31;;;;;;;3.00;0.73;;;20.70;53.00;;;;;;5032120;28;20232;-68
2023/03/28 11:56:05;;;;;;;0.77;0.70;;;20.70;53.40;;;;;;5023942;28;20202;-69
2023/03/28 11:58:39;;;;;;;1.35;0.77;;;20.70;54.20;;;;;;5013162;28;20195;-69
2023/03/28 12:01:12;;;;;;;1.90;0.88;;;20.70;52.50;;;;;;5015803;28;20245;-68
2023/03/28 12:03:54;;;;;;;2.75;0.90;;;20.60;52.70;;;;;;5030680;28;20206;-69
2023/03/28 12:06:29;;;;;;;4.53;0.77;;;20.80;53.30;;;;;;5030147;28;20207;-68
2023/03/28 12:09:02;;;;;;;2.35;1.08;;;20.90;54.10;;;;;;5030667;28;20221;-68
2023/03/28 12:11:35;;;;;;;1.00;0.88;;;20.90;53.10;;;;;;5024583;28;20225;-67
2023/03/28 12:14:32;;;;;;;0.77;0.70;;;21.00;53.40;;;;;;5029433;28;20216;-69
2023/03/28 12:17:04;;;;;;;5.30;0.85;;;21.10;53.40;;;;;;5009555;28;20198;-69
2023/03/28 12:19:38;;;;;;;3.58;0.93;;;21.10;54.10;;;;;;5030460;28;20234;-68
2023/03/28 12:22:12;;;;;;;2.42;0.70;;;21.10;53.30;;;;;;5030329;28;20285;-69
2023/03/28 12:24:45;;;;;;;0.60;0.60;;;21.10;53.30;;;;;;5029325;28;20272;-66
2023/03/28 12:27:20;;;;;;;2.10;0.70;;;21.20;52.70;;;;;;5031075;28;20241;-69
2023/03/28 12:29:57;;;;;;;2.67;0.70;;;21.10;62.20;;;;;;5025920;28;20304;-66
2023/03/28 12:32:43;;;;;;;1.08;0.70;;;21.20;52.90;;;;;;5029725;28;20205;-68
2023/03/28 12:35:18;;;;;;;3.15;0.80;;;21.20;52.60;;;;;;5023424;28;20335;-67
2023/03/28 12:37:58;;;;;;;5.07;0.90;;;21.20;52.70;;;;;;5038381;28;20229;-68
2023/03/28 12:40:35;;;;;;;3.13;0.77;;;21.20;53.10;;;;;;5029567;28;20300;-68
2023/03/28 12:43:06;;;;;;;1.55;0.65;;;21.20;51.80;;;;;;5027324;28;20316;-68
2023/03/28 12:45:41;;;;;;;1.85;0.70;;;21.10;52.90;;;;;;5029177;28;20270;-69
2023/03/28 12:48:16;;;;;;;0.88;0.70;;;21.00;52.00;;;;;;5029459;28;20268;-69
2023/03/28 12:50:51;;;;;;;3.67;1.33;;;21.10;53.20;;;;;;5029937;28;20275;-66
2023/03/28 12:53:20;;;;;;;2.35;0.90;;;21.10;52.90;;;;;;5032195;28;20271;-67
2023/03/28 12:55:51;;;;;;;1.10;0.80;;;21.20;52.90;;;;;;5031545;28;20272;-67
2023/03/28 12:58:27;;;;;;;0.80;0.80;;;21.10;52.00;;;;;;5031753;28;20277;-67
2023/03/28 13:01:21;;;;;;;4.72;0.77;;;21.10;51.70;;;;;;5025962;28;20275;-68
2023/03/28 13:03:57;;;;;;;2.42;0.70;;;21.10;52.90;;;;;;5027898;28;20198;-65
2023/03/28 13:06:35;;;;;;;1.15;0.90;;;21.10;52.80;;;;;;5041925;22;20240;-69
2023/03/28 13:09:46;;;;;;;2.60;0.80;;;21.10;53.30;;;;;;5031162;28;20913;-67
2023/03/28 13:12:34;;;;;;;1.77;0.90;;;21.10;51.90;;;;;;5028623;28;20635;-69
2023/03/28 13:15:24;;;;;;;1.13;0.82;;;21.10;52.70;;;;;;5031633;28;20222;-68
2023/03/28 13:18:30;;;;;;;7.10;1.20;;;21.10;52.30;;;;;;5036373;28;20221;-68
2023/03/28 13:21:04;;;;;;;1.50;0.70;;;21.20;53.00;;;;;;5029379;28;20205;-70
2023/03/28 13:23:36;;;;;;;1.05;0.70;;;21.20;53.20;;;;;;5027209;28;20285;-70
2023/03/28 13:26:06;;;;;;;1.30;0.70;;;21.20;53.00;;;;;;5025756;28;20233;-68
2023/03/28 13:28:40;;;;;;;2.58;0.90;;;21.30;52.60;;;;;;5026626;28;20600;-66
2023/03/28 13:31:19;;;;;;;1.23;0.70;;;21.30;52.60;;;;;;5022296;28;20198;-68
2023/03/28 13:33:53;;;;;;;1.38;1.05;;;21.30;52.60;;;;;;5008852;28;20233;-69
2023/03/28 13:36:33;;;;;;;2.05;0.95;;;21.30;53.10;;;;;;5008888;28;20280;-69
2023/03/28 13:39:20;;;;;;;0.65;0.65;;;21.30;51.80;;;;;;5008560;28;20199;-66
2023/03/28 13:41:57;;;;;;;0.80;0.80;;;21.30;51.90;;;;;;5008840;28;20201;-69
2023/03/28 13:44:36;;;;;;;1.00;0.63;;;21.60;63.00;;;;;;5008455;28;20206;-69
2023/03/28 13:47:05;;;;;;;1.90;0.63;;;21.40;53.10;;;;;;5008484;28;20206;-71
2023/03/28 13:49:44;;;;;;;1.67;1.58;;;21.40;52.60;;;;;;5008550;28;20293;-67
2023/03/28 13:52:15;;;;;;;1.52;0.70;;;21.40;54.00;;;;;;5008772;28;20199;-70
2023/03/28 13:54:52;;;;;;;1.23;0.65;;;21.40;52.90;;;;;;5009400;28;20313;-66
2023/03/28 13:57:39;;;;;;;1.10;0.60;;;21.40;52.50;;;;;;5020923;28;20296;-70
2023/03/28 14:00:27;;;;;;;2.17;0.85;;;21.40;52.30;;;;;;5032189;28;20202;-69
2023/03/28 14:03:15;;;;;;;1.13;0.70;;;21.40;52.90;;;;;;5031601;28;20210;-70
2023/03/28 14:05:46;;;;;;;1.48;0.80;;;21.40;53.40;;;;;;5031892;28;20234;-71
2023/03/28 14:08:24;;;;;;;2.00;0.70;;;21.40;51.70;;;;;;5030587;28;20202;-68
2023/03/28 14:10:54;;;;;;;1.50;0.70;;;21.40;52.80;;;;;;5032926;28;20954;-70
2023/03/28 14:13:25;;;;;;;1.30;0.75;;;21.50;52.70;;;;;;5033028;28;20679;-70